createdAt,value
2018-03-14T00:02:18.304Z,4.13
2018-03-14T00:04:45.915Z,3.80
2018-03-14T00:07:13.551Z,4.30
2018-03-14T00:09:41.153Z,4.30
2018-03-14T00:12:08.782Z,4.43
2018-03-14T00:14:36.485Z,4.90
2018-03-14T00:17:04.531Z,4.57
2018-03-14T00:19:32.151Z,6.50
2018-03-14T00:21:59.762Z,4.97
2018-03-14T00:24:27.393Z,5.30
2018-03-14T00:26:55.014Z,4.83
2018-03-14T00:29:22.648Z,5.20
2018-03-14T00:31:50.262Z,4.80
2018-03-14T00:34:18.181Z,4.17
2018-03-14T00:36:45.868Z,4.95
2018-03-14T00:39:13.487Z,4.30
2018-03-14T00:41:41.125Z,4.40
2018-03-14T00:44:08.809Z,5.15
2018-03-14T00:46:36.519Z,5.40
2018-03-14T00:49:04.162Z,4.57
2018-03-14T00:51:32.018Z,5.10
2018-03-14T00:53:59.635Z,3.87
2018-03-14T00:56:27.321Z,4.93
2018-03-14T00:58:55.037Z,5.25
2018-03-14T01:01:22.815Z,5.22
2018-03-14T01:03:50.543Z,5.65
2018-03-14T01:06:18.235Z,5.72
2018-03-14T01:08:45.963Z,5.65
2018-03-14T01:11:13.662Z,5.20
2018-03-14T01:13:41.347Z,6.68
2018-03-14T01:16:08.998Z,6.00
2018-03-14T01:18:36.680Z,5.45
2018-03-14T01:21:04.392Z,6.43
2018-03-14T01:23:32.082Z,4.78
2018-03-14T01:25:59.906Z,6.03
2018-03-14T01:28:27.515Z,6.13
2018-03-14T01:30:55.204Z,6.20
2018-03-14T01:33:22.922Z,6.07
2018-03-14T01:35:50.539Z,6.00
2018-03-14T01:38:18.255Z,6.65
2018-03-14T01:40:45.945Z,6.78
2018-03-14T01:43:13.767Z,6.55
2018-03-14T01:45:41.377Z,7.00
2018-03-14T01:48:09.071Z,6.65
2018-03-14T01:50:36.774Z,6.15
2018-03-14T01:53:16.282Z,6.15
2018-03-14T01:55:43.993Z,7.18
2018-03-14T01:58:11.675Z,7.10
2018-03-14T02:00:39.316Z,6.97
2018-03-14T02:03:06.951Z,6.80
2018-03-14T02:05:34.644Z,7.03
2018-03-14T02:08:02.274Z,8.13
2018-03-14T02:10:29.889Z,7.77
2018-03-14T02:12:57.520Z,8.80
2018-03-14T02:15:25.128Z,7.80
2018-03-14T02:17:52.820Z,7.18
2018-03-14T02:20:20.453Z,6.40
2018-03-14T02:22:48.152Z,7.45
2018-03-14T02:25:15.869Z,7.82
2018-03-14T02:27:43.571Z,7.93
2018-03-14T02:30:11.182Z,7.57
2018-03-14T02:32:38.893Z,8.65
2018-03-14T02:35:06.675Z,7.70
2018-03-14T02:37:34.317Z,8.63
2018-03-14T02:40:01.927Z,8.57
2018-03-14T02:42:29.645Z,7.68
2018-03-14T02:44:57.340Z,8.20
2018-03-14T02:47:24.925Z,8.07
2018-03-14T02:49:52.532Z,8.80
2018-03-14T02:52:20.125Z,9.33
2018-03-14T02:54:47.754Z,8.33
2018-03-14T02:57:15.344Z,8.87
2018-03-14T02:59:42.935Z,8.47
2018-03-14T03:02:10.616Z,9.10
2018-03-14T03:04:38.296Z,8.90
2018-03-14T03:07:05.955Z,8.50
2018-03-14T03:09:33.545Z,6.67
2018-03-14T03:12:01.212Z,7.60
2018-03-14T03:14:28.899Z,9.35
2018-03-14T03:16:56.500Z,8.50
2018-03-14T03:19:24.196Z,9.32
2018-03-14T03:21:51.864Z,9.00
2018-03-14T03:24:19.533Z,9.02
2018-03-14T03:26:47.224Z,7.70
2018-03-14T03:29:14.901Z,7.35
2018-03-14T03:31:42.774Z,6.22
2018-03-14T03:34:10.446Z,7.93
2018-03-14T03:36:38.123Z,7.25
2018-03-14T03:39:05.815Z,5.97
2018-03-14T03:41:33.405Z,6.53
2018-03-14T03:44:01.119Z,7.53
2018-03-14T03:46:28.751Z,7.60
2018-03-14T03:48:56.423Z,6.95
2018-03-14T03:51:24.106Z,6.60
2018-03-14T03:53:51.847Z,6.53
2018-03-14T03:56:19.519Z,7.53
2018-03-14T03:58:47.132Z,6.00
2018-03-14T04:01:14.797Z,5.12
2018-03-14T04:03:42.453Z,6.10
2018-03-14T04:06:10.151Z,5.90
2018-03-14T04:08:37.766Z,6.20
2018-03-14T04:11:05.477Z,6.10
2018-03-14T04:13:33.149Z,6.07
2018-03-14T04:16:00.818Z,5.55
2018-03-14T04:18:28.491Z,5.00
2018-03-14T04:20:56.149Z,4.85
2018-03-14T04:23:23.765Z,5.53
2018-03-14T04:25:51.453Z,6.05
2018-03-14T04:28:19.119Z,5.50
2018-03-14T04:30:46.813Z,6.32
2018-03-14T04:33:14.429Z,5.67
2018-03-14T04:35:42.067Z,4.90
2018-03-14T04:38:09.652Z,5.80
2018-03-14T04:40:37.316Z,5.40
2018-03-14T04:43:05.021Z,6.20
2018-03-14T04:45:32.696Z,4.93
2018-03-14T04:48:00.408Z,5.87
2018-03-14T04:50:28.072Z,5.12
2018-03-14T04:52:55.759Z,5.45
2018-03-14T04:55:23.460Z,6.07
2018-03-14T04:57:51.123Z,6.25
2018-03-14T05:00:18.920Z,6.20
2018-03-14T05:02:46.596Z,5.55
2018-03-14T05:05:14.188Z,5.60
2018-03-14T05:07:41.875Z,6.90
2018-03-14T05:10:09.548Z,6.15
2018-03-14T05:12:37.399Z,6.80
2018-03-14T05:15:05.485Z,6.75
2018-03-14T05:17:33.158Z,7.28
2018-03-14T05:20:00.889Z,7.70
2018-03-14T05:22:28.565Z,6.82
2018-03-14T05:24:56.364Z,6.43
2018-03-14T05:27:24.042Z,7.28
2018-03-14T05:29:51.741Z,7.37
2018-03-14T05:32:19.373Z,8.00
2018-03-14T05:34:47.055Z,7.45
2018-03-14T05:37:14.801Z,8.18
2018-03-14T05:39:42.395Z,6.63
2018-03-14T05:42:10.077Z,7.15
2018-03-14T05:44:37.691Z,6.90
2018-03-14T05:47:05.301Z,7.60
2018-03-14T05:49:32.930Z,8.03
2018-03-14T05:52:00.611Z,8.02
2018-03-14T05:54:28.297Z,7.82
2018-03-14T05:56:55.985Z,8.32
2018-03-14T05:59:23.648Z,6.65
2018-03-14T06:01:51.451Z,7.37
2018-03-14T06:04:19.073Z,6.50
2018-03-14T06:06:46.737Z,7.57
2018-03-14T06:09:14.714Z,8.30
2018-03-14T06:11:42.376Z,7.80
2018-03-14T06:14:10.229Z,7.85
2018-03-14T06:16:37.823Z,7.80
2018-03-14T06:19:05.420Z,8.40
2018-03-14T06:21:33.021Z,7.47
2018-03-14T06:24:00.621Z,7.87
2018-03-14T06:26:28.746Z,7.70
2018-03-14T06:28:56.353Z,7.30
2018-03-14T06:31:23.973Z,8.37
2018-03-14T06:33:51.592Z,7.73
2018-03-14T06:36:19.203Z,7.90
2018-03-14T06:38:47.491Z,7.90
2018-03-14T06:41:15.094Z,7.43
2018-03-14T06:43:42.676Z,7.33
2018-03-14T06:46:10.284Z,8.17
2018-03-14T06:48:37.991Z,8.98
2018-03-14T06:51:05.630Z,8.10
2018-03-14T06:53:33.232Z,9.07
2018-03-14T06:56:00.825Z,7.13
2018-03-14T06:58:40.131Z,8.10
2018-03-14T07:01:19.628Z,8.32
2018-03-14T07:03:59.086Z,8.93
2018-03-14T07:06:26.675Z,8.47
2018-03-14T07:08:54.289Z,9.40
2018-03-14T07:11:21.897Z,8.30
2018-03-14T07:13:49.865Z,8.70
2018-03-14T07:16:17.460Z,8.87
2018-03-14T07:18:45.090Z,8.80
2018-03-14T07:21:12.718Z,8.00
2018-03-14T07:23:40.387Z,7.22
2018-03-14T07:26:08.101Z,8.23
2018-03-14T07:28:35.792Z,8.73
2018-03-14T07:31:03.598Z,9.30
2018-03-14T07:33:31.183Z,8.17
2018-03-14T07:35:58.820Z,8.37
2018-03-14T07:38:26.448Z,8.73
2018-03-14T07:40:54.035Z,9.90
2018-03-14T07:43:21.657Z,9.33
2018-03-14T07:45:49.272Z,9.00
2018-03-14T07:48:17.051Z,9.80
2018-03-14T07:50:48.704Z,12.30
2018-03-14T07:53:16.675Z,9.00
2018-03-14T07:55:46.718Z,9.37
2018-03-14T07:58:14.304Z,8.47
2018-03-14T08:00:41.929Z,10.50
2018-03-14T08:03:09.532Z,9.93
2018-03-14T08:05:37.156Z,11.17
2018-03-14T08:08:04.750Z,9.77
2018-03-14T08:10:32.388Z,11.20
2018-03-14T08:13:01.060Z,10.87
2018-03-14T08:15:29.017Z,9.07
2018-03-14T08:17:56.983Z,9.50
2018-03-14T08:20:24.576Z,9.87
2018-03-14T08:22:52.243Z,9.57
2018-03-14T08:25:19.942Z,10.30
2018-03-14T08:27:47.960Z,9.73
2018-03-14T08:30:15.552Z,8.40
2018-03-14T08:32:43.358Z,9.60
2018-03-14T08:35:10.978Z,10.47
2018-03-14T08:37:38.571Z,9.30
2018-03-14T08:40:06.180Z,9.23
2018-03-14T08:42:33.800Z,10.40
2018-03-14T08:45:01.459Z,9.20
2018-03-14T08:47:29.054Z,10.50
2018-03-14T08:49:56.644Z,9.43
2018-03-14T08:52:24.260Z,8.90
2018-03-14T08:54:52.096Z,9.97
2018-03-14T08:57:20.175Z,10.00
2018-03-14T08:59:47.935Z,9.63
2018-03-14T09:02:16.751Z,9.10
2018-03-14T09:04:44.359Z,9.97
2018-03-14T09:07:12.386Z,9.67
2018-03-14T09:09:39.998Z,8.60
2018-03-14T09:12:07.645Z,8.53
2018-03-14T09:14:35.341Z,8.40
2018-03-14T09:17:02.942Z,8.47
2018-03-14T09:19:31.109Z,9.00
2018-03-14T09:21:58.879Z,9.30
2018-03-14T09:24:26.459Z,8.20
2018-03-14T09:26:54.232Z,9.73
2018-03-14T09:29:21.816Z,9.73
2018-03-14T09:31:49.444Z,8.90
2018-03-14T09:34:17.068Z,7.70
2018-03-14T09:36:44.720Z,8.13
2018-03-14T09:39:12.336Z,8.90
2018-03-14T09:41:39.914Z,7.00
2018-03-14T09:44:07.621Z,7.97
2018-03-14T09:46:35.208Z,7.80
2018-03-14T09:49:03.377Z,6.40
2018-03-14T09:51:34.124Z,6.87
2018-03-14T09:54:02.085Z,8.07
2018-03-14T09:56:29.677Z,7.57
2018-03-14T09:58:57.273Z,8.20
2018-03-14T10:01:24.891Z,7.70
2018-03-14T10:03:52.487Z,6.83
2018-03-14T10:06:20.459Z,7.43
2018-03-14T10:08:48.253Z,8.40
2018-03-14T10:11:15.858Z,8.37
2018-03-14T10:13:43.496Z,6.40
2018-03-14T10:16:11.318Z,8.57
2018-03-14T10:18:39.313Z,8.27
2018-03-14T10:21:07.184Z,7.97
2018-03-14T10:23:34.773Z,8.33
2018-03-14T10:26:02.392Z,7.40
2018-03-14T10:28:29.977Z,7.60
2018-03-14T10:30:57.612Z,8.03
2018-03-14T10:33:25.272Z,8.90
2018-03-14T10:35:53.136Z,8.33
2018-03-14T10:38:20.800Z,7.70
2018-03-14T10:40:48.402Z,7.10
2018-03-14T10:43:16.047Z,8.57
2018-03-14T10:45:43.665Z,7.43
2018-03-14T10:48:11.573Z,8.43
2018-03-14T10:50:39.635Z,7.83
2018-03-14T10:53:07.481Z,7.87
2018-03-14T10:55:35.076Z,8.00
2018-03-14T10:58:02.677Z,8.60
2018-03-14T11:00:35.806Z,8.20
2018-03-14T11:03:03.403Z,9.03
2018-03-14T11:05:31.103Z,7.93
2018-03-14T11:07:58.691Z,8.33
2018-03-14T11:10:28.213Z,7.33
2018-03-14T11:12:55.812Z,9.20
2018-03-14T11:15:23.616Z,7.50
2018-03-14T11:17:51.213Z,8.17
2018-03-14T11:20:18.972Z,8.97
2018-03-14T11:22:46.861Z,8.23
2018-03-14T11:25:14.657Z,8.33
2018-03-14T11:27:42.670Z,8.73
2018-03-14T11:30:10.618Z,7.17
2018-03-14T11:32:38.363Z,6.60
2018-03-14T11:35:05.959Z,7.03
2018-03-14T11:37:33.560Z,6.43
2018-03-14T11:40:01.181Z,8.33
2018-03-14T11:42:28.781Z,7.90
2018-03-14T11:44:58.025Z,8.40
2018-03-14T11:47:26.124Z,6.47
2018-03-14T11:49:53.713Z,8.10
2018-03-14T11:52:21.359Z,6.70
2018-03-14T11:54:49.045Z,7.67
2018-03-14T11:57:16.973Z,7.40
2018-03-14T11:59:44.813Z,7.00
2018-03-14T12:02:12.474Z,7.10
2018-03-14T12:04:40.864Z,6.77
2018-03-14T12:07:08.511Z,6.27
2018-03-14T12:09:36.243Z,8.40
2018-03-14T12:12:03.894Z,6.73
2018-03-14T12:14:32.101Z,7.60
2018-03-14T12:16:59.709Z,7.10
2018-03-14T12:19:27.326Z,5.93
2018-03-14T12:21:54.940Z,8.47
2018-03-14T12:24:22.536Z,6.63
2018-03-14T12:26:50.456Z,7.37
2018-03-14T12:29:18.330Z,6.50
2018-03-14T12:31:45.969Z,6.90
2018-03-14T12:34:13.930Z,8.73
2018-03-14T12:36:41.516Z,6.70
2018-03-14T12:39:09.144Z,7.10
2018-03-14T12:41:36.735Z,6.03
2018-03-14T12:44:04.350Z,6.17
2018-03-14T12:46:31.933Z,6.40
2018-03-14T12:48:59.564Z,6.80
2018-03-14T12:51:27.166Z,6.40
2018-03-14T12:53:54.757Z,6.90
2018-03-14T12:56:22.617Z,6.63
2018-03-14T12:58:50.372Z,6.40
2018-03-14T13:01:18.023Z,6.43
2018-03-14T13:03:45.611Z,7.07
2018-03-14T13:06:13.443Z,6.13
2018-03-14T13:08:41.039Z,7.30
2018-03-14T13:11:08.673Z,7.17
2018-03-14T13:13:36.543Z,7.40
2018-03-14T13:16:04.284Z,6.90
2018-03-14T13:18:31.900Z,6.43
2018-03-14T13:20:59.484Z,7.93
2018-03-14T13:23:27.293Z,6.70
2018-03-14T13:25:55.483Z,7.77
2018-03-14T13:28:23.356Z,7.33
2018-03-14T13:30:50.980Z,7.80
2018-03-14T13:33:18.582Z,7.50
2018-03-14T13:35:47.964Z,8.13
2018-03-14T13:38:15.553Z,6.30
2018-03-14T13:40:43.284Z,6.03
2018-03-14T13:43:10.876Z,6.50
2018-03-14T13:45:38.456Z,6.00
2018-03-14T13:48:06.091Z,5.73
2018-03-14T13:50:33.683Z,7.80
2018-03-14T13:53:01.305Z,5.90
2018-03-14T13:55:29.194Z,5.80
2018-03-14T13:57:57.438Z,5.30
2018-03-14T14:00:25.072Z,5.60
2018-03-14T14:02:52.672Z,5.80
2018-03-14T14:05:20.327Z,8.17
2018-03-14T14:07:47.920Z,7.67
2018-03-14T14:10:15.546Z,6.73
2018-03-14T14:12:43.151Z,5.97
2018-03-14T14:15:11.065Z,7.50
2018-03-14T14:17:39.058Z,7.30
2018-03-14T14:20:06.643Z,7.90
2018-03-14T14:22:34.276Z,6.70
2018-03-14T14:25:01.924Z,7.33
2018-03-14T14:27:29.812Z,6.60
2018-03-14T14:29:57.685Z,7.60
2018-03-14T14:32:25.540Z,7.03
2018-03-14T14:34:53.148Z,8.03
2018-03-14T14:37:22.319Z,7.63
2018-03-14T14:39:50.476Z,8.97
2018-03-14T14:42:18.068Z,7.67
2018-03-14T14:44:45.684Z,8.93
2018-03-14T14:47:13.272Z,8.27
2018-03-14T14:49:41.038Z,6.83
2018-03-14T14:52:08.626Z,9.80
2018-03-14T14:54:36.248Z,8.47
2018-03-14T14:57:05.592Z,8.50
2018-03-14T14:59:33.532Z,7.90
2018-03-14T15:02:01.153Z,9.10
2018-03-14T15:04:29.286Z,10.43
2018-03-14T15:06:57.204Z,9.80
2018-03-14T15:09:24.811Z,9.97
2018-03-14T15:11:52.528Z,9.70
2018-03-14T15:14:20.629Z,7.53
2018-03-14T15:16:48.593Z,7.87
2018-03-14T15:19:16.209Z,8.57
2018-03-14T15:21:43.885Z,10.07
2018-03-14T15:24:11.660Z,8.50
2018-03-14T15:26:39.556Z,9.47
2018-03-14T15:29:07.369Z,9.73
2018-03-14T15:31:35.051Z,9.33
2018-03-14T15:34:02.661Z,10.23
2018-03-14T15:36:30.324Z,9.23
2018-03-14T15:38:57.893Z,8.90
2018-03-14T15:41:25.706Z,9.57
2018-03-14T15:43:53.296Z,9.57
2018-03-14T15:46:20.900Z,7.93
2018-03-14T15:48:48.537Z,9.07
2018-03-14T15:51:16.300Z,10.00
2018-03-14T15:53:44.157Z,8.20
2018-03-14T15:56:12.072Z,8.13
2018-03-14T15:58:40.392Z,8.90
2018-03-14T16:01:08.041Z,9.30
2018-03-14T16:03:35.636Z,9.50
2018-03-14T16:06:03.260Z,9.70
2018-03-14T16:08:30.850Z,8.87
2018-03-14T16:10:58.874Z,8.47
2018-03-14T16:13:26.490Z,8.33
2018-03-14T16:15:54.139Z,8.27
2018-03-14T16:18:21.737Z,7.13
2018-03-14T16:20:49.324Z,6.10
2018-03-14T16:23:17.000Z,6.80
2018-03-14T16:25:44.893Z,8.00
2018-03-14T16:28:12.760Z,6.70
2018-03-14T16:30:40.349Z,6.50
2018-03-14T16:33:08.789Z,7.73
2018-03-14T16:35:36.516Z,8.23
2018-03-14T16:38:04.106Z,6.93
2018-03-14T16:40:31.716Z,7.43
2018-03-14T16:42:59.326Z,7.13
2018-03-14T16:45:27.316Z,7.40
2018-03-14T16:47:54.949Z,7.63
2018-03-14T16:50:22.817Z,8.13
2018-03-14T16:52:56.169Z,7.43
2018-03-14T16:55:24.616Z,7.17
2018-03-14T16:57:52.497Z,7.20
2018-03-14T17:00:20.308Z,6.87
2018-03-14T17:02:47.914Z,5.80
2018-03-14T17:05:15.871Z,7.63
2018-03-14T17:08:00.980Z,6.37
2018-03-14T17:10:29.512Z,6.67
2018-03-14T17:13:04.036Z,6.80
2018-03-14T17:15:31.688Z,8.47
2018-03-14T17:17:59.291Z,7.13
2018-03-14T17:20:26.911Z,7.83
2018-03-14T17:22:54.918Z,7.70
2018-03-14T17:25:22.663Z,7.60
2018-03-14T17:27:50.444Z,8.03
2018-03-14T17:30:18.074Z,7.33
2018-03-14T17:32:45.699Z,8.87
2018-03-14T17:35:13.294Z,8.57
2018-03-14T17:37:40.920Z,8.20
2018-03-14T17:40:08.524Z,8.40
2018-03-14T17:42:36.135Z,8.50
2018-03-14T17:45:03.727Z,7.63
2018-03-14T17:47:31.513Z,9.10
2018-03-14T17:49:59.107Z,9.50
2018-03-14T17:52:26.704Z,8.27
2018-03-14T17:54:54.344Z,8.07
2018-03-14T17:57:22.218Z,7.57
2018-03-14T17:59:50.262Z,8.53
2018-03-14T18:02:17.859Z,8.50
2018-03-14T18:04:45.496Z,8.20
2018-03-14T18:07:13.093Z,8.43
2018-03-14T18:09:40.686Z,8.73
2018-03-14T18:12:08.306Z,8.47
2018-03-14T18:14:35.922Z,8.23
2018-03-14T18:17:03.542Z,8.27
2018-03-14T18:19:31.129Z,7.77
2018-03-14T18:21:58.748Z,8.03
2018-03-14T18:24:26.422Z,7.93
2018-03-14T18:26:54.346Z,8.73
2018-03-14T18:29:22.313Z,9.17
2018-03-14T18:31:49.934Z,8.13
2018-03-14T18:34:17.568Z,8.40
2018-03-14T18:36:45.180Z,8.90
2018-03-14T18:39:12.772Z,9.40
2018-03-14T18:41:40.393Z,8.93
2018-03-14T18:44:08.378Z,9.87
2018-03-14T18:46:36.120Z,9.10
2018-03-14T18:49:03.712Z,10.20
2018-03-14T18:51:31.362Z,9.80
2018-03-14T18:53:58.982Z,10.27
2018-03-14T18:56:26.633Z,8.57
2018-03-14T18:58:54.244Z,9.27
2018-03-14T19:01:21.896Z,8.70
2018-03-14T19:03:49.777Z,9.70
2018-03-14T19:06:17.378Z,10.03
2018-03-14T19:08:44.978Z,10.43
2018-03-14T19:11:12.611Z,9.90
2018-03-14T19:13:40.209Z,9.10
2018-03-14T19:16:07.856Z,10.10
2018-03-14T19:18:35.512Z,9.40
2018-03-14T19:21:03.107Z,9.53
2018-03-14T19:23:30.716Z,8.90
2018-03-14T19:25:58.751Z,8.60
2018-03-14T19:28:26.368Z,10.03
2018-03-14T19:30:53.959Z,9.13
2018-03-14T19:33:21.826Z,10.10
2018-03-14T19:35:49.415Z,8.43
2018-03-14T19:38:17.047Z,9.80
2018-03-14T19:40:44.670Z,9.27
2018-03-14T19:43:12.272Z,10.20
2018-03-14T19:45:39.882Z,9.70
2018-03-14T19:48:07.476Z,9.10
2018-03-14T19:50:35.092Z,9.47
2018-03-14T19:53:02.725Z,8.87
2018-03-14T19:55:30.514Z,9.67
2018-03-14T19:57:58.107Z,8.60
2018-03-14T20:00:25.882Z,8.23
2018-03-14T20:02:53.501Z,9.83
2018-03-14T20:05:21.092Z,9.27
2018-03-14T20:07:48.703Z,9.47
2018-03-14T20:10:16.293Z,8.70
2018-03-14T20:12:43.903Z,8.80
2018-03-14T20:15:11.500Z,9.53
2018-03-14T20:17:39.117Z,8.80
2018-03-14T20:20:06.714Z,10.27
2018-03-14T20:22:34.359Z,10.77
2018-03-14T20:25:01.954Z,9.67
2018-03-14T20:27:29.564Z,10.67
2018-03-14T20:29:57.182Z,10.07
2018-03-14T20:32:24.818Z,10.40
2018-03-14T20:34:52.449Z,9.57
2018-03-14T20:37:20.084Z,11.60
2018-03-14T20:39:47.728Z,10.60
2018-03-14T20:42:15.323Z,10.00
2018-03-14T20:44:42.924Z,11.33
2018-03-14T20:47:10.541Z,10.37
2018-03-14T20:49:38.147Z,9.80
2018-03-14T20:52:05.760Z,9.80
2018-03-14T20:54:33.352Z,10.57
2018-03-14T20:57:00.984Z,10.97
2018-03-14T20:59:28.670Z,10.57
2018-03-14T21:01:56.450Z,10.00
2018-03-14T21:04:24.061Z,9.03
2018-03-14T21:06:51.650Z,9.60
2018-03-14T21:09:19.288Z,9.83
2018-03-14T21:11:46.888Z,13.33
2018-03-14T21:14:14.530Z,10.77
2018-03-14T21:16:42.128Z,9.50
2018-03-14T21:19:10.086Z,9.90
2018-03-14T21:21:37.714Z,10.43
2018-03-14T21:24:06.120Z,10.43
2018-03-14T21:26:33.828Z,9.07
2018-03-14T21:29:01.418Z,9.77
2018-03-14T21:31:29.056Z,9.37
2018-03-14T21:33:56.659Z,9.00
2018-03-14T21:36:24.283Z,8.30
2018-03-14T21:38:51.882Z,10.37
2018-03-14T21:41:19.489Z,9.80
2018-03-14T21:43:47.162Z,9.40
2018-03-14T21:46:14.749Z,9.60
2018-03-14T21:48:42.399Z,9.40
2018-03-14T21:51:10.007Z,9.00
2018-03-14T21:53:37.969Z,8.63
2018-03-14T21:56:05.555Z,8.80
2018-03-14T21:58:33.152Z,9.30
2018-03-14T22:01:00.846Z,8.30
2018-03-14T22:03:28.567Z,9.50
2018-03-14T22:05:56.443Z,9.20
2018-03-14T22:08:24.046Z,9.00
2018-03-14T22:10:51.678Z,9.70
2018-03-14T22:13:19.271Z,9.87
2018-03-14T22:15:46.951Z,9.63
2018-03-14T22:18:14.577Z,10.27
2018-03-14T22:20:42.272Z,8.73
2018-03-14T22:23:09.884Z,8.77
2018-03-14T22:25:37.579Z,9.03
2018-03-14T22:28:05.433Z,9.43
2018-03-14T22:30:33.044Z,8.90
2018-03-14T22:33:00.643Z,9.10
2018-03-14T22:35:28.339Z,9.07
2018-03-14T22:37:56.017Z,10.52
2018-03-14T22:40:23.631Z,8.90
2018-03-14T22:42:51.221Z,9.90
2018-03-14T22:45:19.139Z,9.13
2018-03-14T22:47:46.745Z,10.67
2018-03-14T22:50:14.432Z,9.40
2018-03-14T22:52:42.040Z,8.30
2018-03-14T22:55:09.660Z,8.80
2018-03-14T22:57:37.352Z,10.15
2018-03-14T23:00:04.941Z,10.27
2018-03-14T23:02:32.533Z,8.60
2018-03-14T23:05:00.279Z,9.98
2018-03-14T23:07:27.910Z,9.40
2018-03-14T23:09:55.651Z,9.00
2018-03-14T23:12:23.329Z,9.38
2018-03-14T23:14:50.928Z,9.10
2018-03-14T23:17:18.548Z,10.37
2018-03-14T23:19:46.216Z,10.38
2018-03-14T23:22:13.899Z,9.00
2018-03-14T23:24:41.576Z,8.73
2018-03-14T23:27:09.445Z,9.23
2018-03-14T23:29:37.118Z,9.77
2018-03-14T23:32:04.699Z,9.50
2018-03-14T23:34:32.404Z,9.43
2018-03-14T23:37:00.860Z,8.70
2018-03-14T23:39:28.562Z,9.30
2018-03-14T23:41:56.228Z,9.63
2018-03-14T23:44:24.205Z,8.57
2018-03-14T23:46:51.800Z,8.87
2018-03-14T23:49:19.574Z,8.98
2018-03-14T23:51:48.394Z,8.50
2018-03-14T23:54:16.078Z,9.45
2018-03-14T23:56:43.696Z,10.37
2018-03-14T23:59:11.372Z,9.43
